Time;durP1;ratioP1;P1;durP2;ratioP2;P2;SDS_P1;SDS_P2;PMS_P1;PMS_P2;Temp;Humidity;BMP_temperature;BMP_pressure;BME280_temperature;BME280_humidity;BME280_pressure;Samples;Min_cycle;Max_cycle;Signal;HPM_P1;HPM_P2
2021/08/18 00:01:08;;;;;;;;;4.50;3.00;;;;;18.80;63.86;101906.72;4999541;28;45340;-82
2021/08/18 00:03:33;;;;;;;;;5.00;2.50;;;;;18.82;63.00;101904.84;4997754;28;45468;-82
2021/08/18 00:05:59;;;;;;;;;6.00;4.25;;;;;18.83;63.31;101903.91;4997677;28;45452;-82
2021/08/18 00:08:25;;;;;;;;;3.00;2.00;;;;;18.84;63.07;101901.16;5000548;28;45504;-82
2021/08/18 00:10:50;;;;;;;;;4.00;4.00;;;;;18.85;63.41;101902.03;4995657;28;45450;-83
2021/08/18 00:13:16;;;;;;;;;5.25;4.00;;;;;18.85;63.30;101900.25;5000421;28;45212;-84
2021/08/18 00:15:42;;;;;;;;;3.25;3.25;;;;;18.87;63.35;101894.81;5000091;28;45271;-84
2021/08/18 00:18:07;;;;;;;;;4.75;4.25;;;;;18.91;63.09;101890.22;4999314;28;45542;-84
2021/08/18 00:20:33;;;;;;;;;6.25;4.50;;;;;18.96;63.01;101881.06;4988461;28;45381;-78
2021/08/18 00:23:00;;;;;;;;;4.75;3.00;;;;;19.04;63.18;101880.66;4999879;28;45203;-77
2021/08/18 00:25:26;;;;;;;;;1.75;1.75;;;;;19.12;62.99;101881.13;5000252;28;45350;-77
2021/08/18 00:27:52;;;;;;;;;6.00;5.00;;;;;19.16;62.83;101880.97;4999271;28;45351;-78
2021/08/18 00:30:18;;;;;;;;;3.25;2.50;;;;;19.18;62.79;101884.47;4998873;28;45298;-79
2021/08/18 00:32:43;;;;;;;;;4.00;4.00;;;;;19.22;62.58;101883.34;4999535;28;45681;-75
2021/08/18 00:35:09;;;;;;;;;5.00;3.75;;;;;19.23;62.70;101883.28;4982343;28;45417;-76
2021/08/18 00:37:34;;;;;;;;;2.00;2.00;;;;;19.20;62.49;101880.78;4998564;28;45507;-75
2021/08/18 00:40:00;;;;;;;;;5.00;3.00;;;;;19.19;62.38;101875.50;5000006;28;45265;-75
2021/08/18 00:42:25;;;;;;;;;4.00;3.50;;;;;19.21;62.60;101878.97;4982151;28;45427;-75
2021/08/18 00:44:53;;;;;;;;;5.50;3.75;;;;;19.25;62.58;101874.34;4999415;28;45429;-75
2021/08/18 00:47:19;;;;;;;;;3.75;3.75;;;;;19.26;62.27;101874.25;4999502;28;46418;-75
2021/08/18 00:49:44;;;;;;;;;4.00;3.00;;;;;19.26;62.49;101868.91;4997793;28;45320;-76
2021/08/18 00:52:09;;;;;;;;;3.25;2.75;;;;;19.23;62.32;101877.97;4999966;28;45147;-76
2021/08/18 00:54:35;;;;;;;;;4.75;3.00;;;;;19.18;62.63;101874.66;4999172;28;45155;-76
2021/08/18 00:57:02;;;;;;;;;3.50;3.50;;;;;19.14;62.35;101881.03;4999555;28;46574;-76
2021/08/18 00:59:29;;;;;;;;;4.25;4.25;;;;;19.06;62.46;101870.78;4999813;28;45567;-76
2021/08/18 01:01:54;;;;;;;;;6.75;5.00;;;;;18.96;62.80;101877.53;4981821;28;45390;-75
2021/08/18 01:04:20;;;;;;;;;3.00;3.00;;;;;18.86;62.85;101872.69;4999138;28;45423;-75
2021/08/18 01:06:46;;;;;;;;;3.50;3.25;;;;;18.78;63.15;101880.19;4994906;28;45526;-75
2021/08/18 01:09:14;;;;;;;;;2.50;2.00;;;;;18.75;63.11;101885.66;4999323;28;45171;-75
2021/08/18 01:11:42;;;;;;;;;3.00;1.50;;;;;18.69;63.16;101880.66;4999518;28;45413;-75
2021/08/18 01:14:08;;;;;;;;;3.00;2.25;;;;;18.72;63.19;101881.34;4998840;28;45666;-75
2021/08/18 01:16:40;;;;;;;;;4.50;4.00;;;;;18.71;63.47;101879.63;4999124;28;45417;-74
2021/08/18 01:19:07;;;;;;;;;6.50;4.25;;;;;18.75;63.23;101878.53;4999327;28;45474;-74
2021/08/18 01:21:38;;;;;;;;;5.00;4.00;;;;;18.78;63.45;101875.72;4988289;28;45352;-74
2021/08/18 01:24:04;;;;;;;;;5.00;4.00;;;;;18.76;63.23;101866.94;4996183;28;45471;-75
2021/08/18 01:26:31;;;;;;;;;3.50;3.00;;;;;18.82;63.16;101871.09;5002612;28;45431;-74
2021/08/18 01:28:58;;;;;;;;;4.00;3.75;;;;;18.85;63.47;101875.41;5002710;28;45518;-74
2021/08/18 01:31:23;;;;;;;;;3.50;3.00;;;;;18.92;63.46;101867.94;5001774;28;45333;-75
2021/08/18 01:33:48;;;;;;;;;4.00;3.00;;;;;18.98;63.16;101862.34;5001145;28;45899;-75
2021/08/18 01:36:14;;;;;;;;;4.25;3.50;;;;;18.96;63.18;101867.75;5002807;28;46304;-75
2021/08/18 01:38:39;;;;;;;;;3.75;3.75;;;;;18.91;63.25;101867.13;5000982;28;45305;-75
2021/08/18 01:41:05;;;;;;;;;4.25;4.00;;;;;18.84;63.34;101853.22;4999473;28;45468;-75
2021/08/18 01:43:30;;;;;;;;;2.50;2.50;;;;;18.86;63.45;101854.03;5002601;28;45460;-77
2021/08/18 01:45:56;;;;;;;;;3.75;3.75;;;;;18.89;62.98;101866.31;5002282;28;45313;-76
2021/08/18 01:48:29;;;;;;;;;5.00;4.00;;;;;18.85;62.79;101862.09;5002413;28;45206;-78
2021/08/18 01:50:56;;;;;;;;;5.25;5.25;;;;;18.84;62.99;101861.22;5001833;28;45480;-79
2021/08/18 01:53:30;;;;;;;;;4.50;4.25;;;;;18.84;63.02;101861.22;4984432;28;46088;-76
2021/08/18 01:56:02;;;;;;;;;5.25;5.00;;;;;18.81;63.06;101852.53;4994996;28;45421;-76
2021/08/18 01:58:28;;;;;;;;;2.00;2.00;;;;;18.78;62.87;101854.41;5002468;28;45454;-77
2021/08/18 02:00:54;;;;;;;;;3.00;3.00;;;;;18.74;63.03;101855.50;5001399;28;45400;-77
2021/08/18 02:03:20;;;;;;;;;3.00;1.75;;;;;18.73;63.12;101852.91;5002125;28;45330;-75
2021/08/18 02:05:45;;;;;;;;;6.00;6.00;;;;;18.72;63.44;101856.50;5001714;28;45274;-76
2021/08/18 02:08:11;;;;;;;;;5.25;3.00;;;;;18.71;62.83;101855.66;5002429;28;45218;-74
2021/08/18 02:10:36;;;;;;;;;2.75;2.75;;;;;18.72;63.36;101851.19;4996474;28;45591;-77
2021/08/18 02:13:02;;;;;;;;;4.00;3.00;;;;;18.74;63.10;101847.50;5002098;28;45270;-77
2021/08/18 02:15:30;;;;;;;;;4.00;4.00;;;;;18.78;62.90;101853.56;5001010;28;46069;-77
2021/08/18 02:17:58;;;;;;;;;2.75;2.00;;;;;18.80;63.13;101851.66;4998442;28;45611;-77
2021/08/18 02:20:27;;;;;;;;;3.50;2.75;;;;;18.78;63.20;101850.88;5001574;28;45396;-77
2021/08/18 02:22:53;;;;;;;;;3.00;3.00;;;;;18.86;63.22;101851.38;5001906;28;45288;-77
2021/08/18 02:25:19;;;;;;;;;3.75;3.00;;;;;18.92;62.95;101849.31;5001472;28;45642;-78
2021/08/18 02:27:46;;;;;;;;;3.50;3.25;;;;;18.95;62.91;101843.84;5001876;28;45524;-80
2021/08/18 02:30:14;;;;;;;;;2.75;2.75;;;;;18.99;62.86;101845.38;5001259;28;45499;-80
2021/08/18 02:32:39;;;;;;;;;4.00;2.00;;;;;19.01;62.71;101838.19;5001633;28;45286;-79
2021/08/18 02:35:05;;;;;;;;;3.75;3.00;;;;;19.06;63.07;101840.63;4983042;28;47276;-79
2021/08/18 02:37:31;;;;;;;;;3.00;3.00;;;;;19.09;62.90;101835.13;4988316;28;45668;-79
2021/08/18 02:39:56;;;;;;;;;4.25;3.25;;;;;19.08;63.08;101842.28;4993931;28;45426;-79
2021/08/18 02:42:22;;;;;;;;;5.00;3.00;;;;;19.05;62.81;101839.75;5001678;28;45214;-77
2021/08/18 02:44:47;;;;;;;;;3.25;3.25;;;;;19.08;62.85;101838.75;5001510;28;45371;-77
2021/08/18 02:47:13;;;;;;;;;3.00;3.00;;;;;19.08;62.75;101834.28;5001227;28;45241;-81
2021/08/18 02:49:39;;;;;;;;;5.00;4.00;;;;;19.11;62.62;101842.09;5000714;28;45233;-77
2021/08/18 02:52:05;;;;;;;;;3.00;3.00;;;;;19.09;62.42;101836.00;5001440;28;45534;-77
2021/08/18 02:54:30;;;;;;;;;4.00;4.00;;;;;19.05;62.67;101823.78;5001510;28;45813;-79
2021/08/18 02:56:55;;;;;;;;;2.25;2.25;;;;;19.05;62.24;101820.25;5001572;28;45222;-79
2021/08/18 02:59:21;;;;;;;;;2.00;1.50;;;;;18.98;62.55;101825.91;4997768;28;45491;-81
2021/08/18 03:01:48;;;;;;;;;4.00;4.00;;;;;18.94;62.65;101826.16;4999113;28;45390;-81
2021/08/18 03:04:14;;;;;;;;;3.00;2.00;;;;;18.93;62.88;101827.94;5000772;28;45423;-81
2021/08/18 03:06:39;;;;;;;;;2.50;2.50;;;;;18.91;62.62;101819.16;5001484;28;45345;-80
2021/08/18 03:09:05;;;;;;;;;4.50;2.75;;;;;18.93;62.87;101822.63;4983673;28;45456;-81
2021/08/18 03:11:30;;;;;;;;;4.00;2.75;;;;;18.98;62.53;101825.03;4980961;28;47418;-81
2021/08/18 03:13:56;;;;;;;;;5.25;4.75;;;;;18.95;62.31;101828.72;5001219;28;46640;-81
2021/08/18 03:16:21;;;;;;;;;4.75;3.75;;;;;18.94;62.59;101826.16;5000938;28;45242;-81
2021/08/18 03:18:46;;;;;;;;;4.25;3.50;;;;;18.96;62.56;101824.25;5001344;28;45459;-81
2021/08/18 03:21:12;;;;;;;;;4.00;2.00;;;;;18.89;62.69;101824.56;5000299;28;45218;-81
2021/08/18 03:23:37;;;;;;;;;3.00;2.75;;;;;18.83;62.75;101816.91;4996135;28;45257;-80
2021/08/18 03:26:03;;;;;;;;;2.25;2.25;;;;;18.81;62.95;101821.44;5001063;28;45217;-80
2021/08/18 03:28:28;;;;;;;;;3.00;3.00;;;;;18.83;62.77;101818.69;5001190;28;45531;-80
2021/08/18 03:30:53;;;;;;;;;3.75;3.50;;;;;18.82;63.10;101811.63;4999174;28;45537;-77
2021/08/18 03:33:19;;;;;;;;;4.75;3.00;;;;;18.88;63.20;101825.50;5000625;28;46591;-79
2021/08/18 03:35:44;;;;;;;;;2.75;2.00;;;;;18.83;63.23;101819.56;5001100;28;45444;-77
2021/08/18 03:38:10;;;;;;;;;3.00;3.00;;;;;18.87;63.17;101821.13;5001122;28;45440;-77
2021/08/18 03:40:36;;;;;;;;;5.50;3.25;;;;;18.87;63.15;101821.13;5000864;28;45419;-74
2021/08/18 03:43:02;;;;;;;;;3.75;2.75;;;;;18.89;62.71;101818.38;5000069;28;45444;-73
2021/08/18 03:45:27;;;;;;;;;5.00;3.25;;;;;18.85;62.58;101823.00;5000579;28;45436;-76
2021/08/18 03:47:52;;;;;;;;;4.25;3.50;;;;;18.76;63.22;101819.03;5000150;28;45247;-74
2021/08/18 03:50:18;;;;;;;;;4.50;4.50;;;;;18.72;63.14;101824.53;4999150;28;45598;-79
2021/08/18 03:52:43;;;;;;;;;5.00;3.00;;;;;18.67;63.22;101820.31;4999215;28;46334;-78
2021/08/18 03:55:13;;;;;;;;;5.00;5.00;;;;;18.61;63.10;101825.97;5000079;28;45389;-79
2021/08/18 03:57:38;;;;;;;;;3.50;2.50;;;;;18.59;63.33;101825.19;5000698;28;45317;-75
2021/08/18 04:00:08;;;;;;;;;4.50;4.50;;;;;18.59;63.61;101819.88;5000441;28;45428;-75
2021/08/18 04:02:33;;;;;;;;;4.00;4.00;;;;;18.60;63.38;101815.38;4981883;28;46968;-75
2021/08/18 04:04:58;;;;;;;;;4.25;4.25;;;;;18.60;63.42;101821.56;4999991;28;45495;-76
2021/08/18 04:07:24;;;;;;;;;4.00;4.00;;;;;18.60;63.51;101820.72;5000490;28;45301;-76
2021/08/18 04:09:49;;;;;;;;;5.00;3.00;;;;;18.52;63.23;101816.63;4981895;28;47646;-78
2021/08/18 04:12:14;;;;;;;;;7.00;6.00;;;;;18.53;63.81;101823.69;4999941;28;45527;-78
2021/08/18 04:14:40;;;;;;;;;2.50;2.50;;;;;18.52;63.48;101821.13;5000475;28;45459;-77
2021/08/18 04:17:05;;;;;;;;;6.00;4.50;;;;;18.53;63.82;101825.47;4998769;28;45846;-77
2021/08/18 04:19:30;;;;;;;;;5.00;4.25;;;;;18.56;63.85;101830.66;4992958;28;45451;-75
2021/08/18 04:21:56;;;;;;;;;5.50;5.50;;;;;18.58;64.06;101819.94;5000153;28;45311;-75
2021/08/18 04:24:21;;;;;;;;;5.25;4.00;;;;;18.50;63.96;101822.97;5000319;28;45270;-74
2021/08/18 04:26:46;;;;;;;;;4.00;3.75;;;;;18.41;63.83;101814.50;4982300;28;45166;-74
2021/08/18 04:29:12;;;;;;;;;3.75;3.75;;;;;18.37;64.22;101823.56;4997927;28;45295;-74
2021/08/18 04:31:37;;;;;;;;;5.00;4.00;;;;;18.37;65.00;101823.56;4992383;28;45440;-77
2021/08/18 04:34:02;;;;;;;;;7.50;5.25;;;;;18.42;64.55;101829.53;4999974;28;45196;-75
2021/08/18 04:36:28;;;;;;;;;4.75;4.75;;;;;18.48;64.51;101825.72;4982421;28;45285;-76
2021/08/18 04:38:53;;;;;;;;;6.50;4.25;;;;;18.47;64.72;101833.78;4998922;28;45225;-77
2021/08/18 04:41:19;;;;;;;;;6.50;4.75;;;;;18.48;64.34;101828.38;4978806;28;46308;-82
2021/08/18 04:43:44;;;;;;;;;7.75;3.75;;;;;18.47;64.15;101823.13;4999517;28;45200;-79
2021/08/18 04:46:09;;;;;;;;;5.00;4.00;;;;;18.43;64.52;101831.25;4998639;28;45219;-80
2021/08/18 04:48:35;;;;;;;;;7.25;7.25;;;;;18.42;64.49;101826.88;4998547;28;45222;-80
2021/08/18 04:51:02;;;;;;;;;4.75;4.00;;;;;18.33;64.47;101822.00;4999435;28;45594;-80
2021/08/18 04:53:28;;;;;;;;;4.00;3.75;;;;;18.35;64.36;101821.94;4997866;28;45765;-80
2021/08/18 04:55:53;;;;;;;;;6.00;6.00;;;;;18.39;64.88;101832.38;4996227;28;45439;-81
2021/08/18 04:58:19;;;;;;;;;5.00;4.75;;;;;18.41;64.44;101825.16;4997944;28;45330;-81
2021/08/18 05:00:44;;;;;;;;;4.25;4.25;;;;;18.44;64.53;101819.69;4987495;28;45500;-81
2021/08/18 05:03:14;;;;;;;;;4.75;4.00;;;;;18.49;64.46;101827.44;4983080;28;45424;-81
2021/08/18 05:05:40;;;;;;;;;4.75;4.00;;;;;18.48;64.62;101824.84;4996212;28;45250;-81
2021/08/18 05:08:06;;;;;;;;;5.50;5.50;;;;;18.44;64.84;101822.34;4999070;28;45246;-82
2021/08/18 05:10:36;;;;;;;;;6.50;5.75;;;;;18.47;64.11;101828.47;5002949;28;46197;-84
2021/08/18 05:13:02;;;;;;;;;3.50;3.50;;;;;18.37;64.83;101815.59;5002833;28;45177;-84
2021/08/18 05:15:27;;;;;;;;;5.25;5.25;;;;;18.35;64.57;101821.94;5002949;28;45262;-84
2021/08/18 05:17:53;;;;;;;;;6.50;3.50;;;;;18.39;64.55;101826.19;5002756;28;45248;-84
2021/08/18 05:20:19;;;;;;;;;4.25;4.25;;;;;18.41;64.57;101824.28;5002385;28;46425;-84
2021/08/18 05:22:46;;;;;;;;;5.25;5.25;;;;;18.49;64.68;101818.59;4984693;28;46381;-84
2021/08/18 05:25:12;;;;;;;;;6.00;4.25;;;;;18.54;64.59;101817.41;5002987;28;45361;-83
2021/08/18 05:27:38;;;;;;;;;6.25;6.25;;;;;18.49;64.80;101821.25;4985222;28;45995;-83
2021/08/18 05:30:09;;;;;;;;;5.00;4.00;;;;;18.53;64.83;101822.81;5002321;28;45415;-83
2021/08/18 05:32:34;;;;;;;;;5.00;5.00;;;;;18.57;64.65;101816.41;4984845;28;45493;-83
2021/08/18 05:35:00;;;;;;;;;4.25;4.00;;;;;18.62;64.32;101825.03;4985335;28;45302;-83
2021/08/18 05:37:25;;;;;;;;;7.00;5.50;;;;;18.65;64.32;101821.34;5003052;28;45223;-83
2021/08/18 05:39:50;;;;;;;;;4.75;3.75;;;;;18.69;64.96;101835.38;5002295;28;45393;-84
2021/08/18 05:42:16;;;;;;;;;5.00;5.00;;;;;18.73;64.49;101831.59;4995821;28;45387;-84
2021/08/18 05:44:41;;;;;;;;;4.50;4.00;;;;;18.77;64.41;101833.16;5002831;28;45483;-84
2021/08/18 05:47:07;;;;;;;;;5.50;5.25;;;;;18.74;64.25;101836.00;5001692;28;45396;-84
2021/08/18 05:49:32;;;;;;;;;6.25;4.00;;;;;18.66;64.41;101833.72;5001770;28;45545;-84
2021/08/18 05:51:57;;;;;;;;;5.25;5.00;;;;;18.58;64.74;101831.44;4984886;28;45298;-83
2021/08/18 05:54:23;;;;;;;;;4.50;4.50;;;;;18.54;64.52;101837.88;5002251;28;45422;-83
2021/08/18 05:56:50;;;;;;;;;5.50;5.00;;;;;18.54;64.85;101835.22;4984019;28;45786;-83
2021/08/18 05:59:15;;;;;;;;;6.50;5.00;;;;;18.52;64.93;101839.75;4983762;28;48156;-83
2021/08/18 06:01:40;;;;;;;;;7.50;2.25;;;;;18.51;64.64;101840.66;5002081;28;45351;-87
2021/08/18 06:04:06;;;;;;;;;5.50;5.50;;;;;18.48;64.71;101841.69;5002083;28;45516;-87
2021/08/18 06:06:31;;;;;;;;;6.25;5.00;;;;;18.48;64.66;101836.38;4984380;28;47303;-87
2021/08/18 06:08:58;;;;;;;;;5.00;3.50;;;;;18.51;64.80;101840.66;4983820;28;47552;-86
2021/08/18 06:11:23;;;;;;;;;4.75;3.75;;;;;18.54;65.26;101845.84;4989616;28;45551;-87
2021/08/18 06:13:49;;;;;;;;;7.25;5.75;;;;;18.53;64.94;101837.00;5002332;28;45669;-87
2021/08/18 06:16:14;;;;;;;;;6.50;4.00;;;;;18.49;65.27;101842.56;5001893;28;45328;-86
2021/08/18 06:18:39;;;;;;;;;4.00;4.00;;;;;18.51;65.31;101849.53;5001406;28;45416;-85
2021/08/18 06:21:05;;;;;;;;;5.75;4.00;;;;;18.52;65.34;101855.72;5002284;28;45218;-86
2021/08/18 06:23:32;;;;;;;;;4.50;4.00;;;;;18.50;65.23;101860.22;5000817;28;45523;-78
2021/08/18 06:25:57;;;;;;;;;5.75;4.75;;;;;18.52;65.41;101853.91;4982762;28;46163;-84
2021/08/18 06:28:23;;;;;;;;;5.00;5.00;;;;;18.57;65.56;101851.00;4986279;28;47395;-84
2021/08/18 06:30:48;;;;;;;;;4.75;3.00;;;;;18.59;65.31;101851.81;5001749;28;45367;-84
2021/08/18 06:33:14;;;;;;;;;6.00;6.00;;;;;18.59;65.08;101846.50;4983754;28;45442;-85
2021/08/18 06:35:39;;;;;;;;;4.50;4.50;;;;;18.60;65.08;101853.53;4983777;28;46427;-85
2021/08/18 06:38:04;;;;;;;;;7.00;5.00;;;;;18.65;65.54;101854.16;4983932;28;47183;-85
2021/08/18 06:40:30;;;;;;;;;5.75;4.25;;;;;18.73;65.19;101851.13;4990407;28;45334;-85
2021/08/18 06:42:56;;;;;;;;;6.50;6.50;;;;;18.80;65.01;101857.00;4991722;28;45602;-85
2021/08/18 06:45:22;;;;;;;;;5.00;4.75;;;;;18.80;65.21;101851.66;4983436;28;47174;-84
2021/08/18 06:47:47;;;;;;;;;5.25;4.00;;;;;18.82;64.95;101863.09;4983477;28;47952;-85
2021/08/18 06:50:13;;;;;;;;;4.75;4.25;;;;;18.83;64.96;101855.97;5001663;28;45281;-86
2021/08/18 06:52:38;;;;;;;;;4.25;4.25;;;;;18.83;64.76;101851.53;4971042;28;45381;-85
2021/08/18 06:55:06;;;;;;;;;4.75;4.50;;;;;18.89;64.49;101856.53;4976950;28;45857;-85
2021/08/18 06:57:31;;;;;;;;;4.25;4.25;;;;;18.96;64.44;101859.75;4977922;28;48597;-84
2021/08/18 06:59:57;;;;;;;;;6.75;5.00;;;;;19.01;64.36;101859.53;4980334;28;45535;-85
2021/08/18 07:02:22;;;;;;;;;5.25;4.50;;;;;19.07;64.34;101861.84;4984038;28;45360;-85
2021/08/18 07:04:47;;;;;;;;;6.00;4.75;;;;;19.06;64.41;101857.44;4988329;28;45297;-85
2021/08/18 07:07:12;;;;;;;;;4.75;3.50;;;;;19.07;64.05;101864.53;4982964;28;47361;-85
2021/08/18 07:09:38;;;;;;;;;7.25;6.25;;;;;19.11;64.50;101859.91;5000782;28;45241;-85
2021/08/18 07:12:04;;;;;;;;;6.50;4.50;;;;;19.09;64.19;101864.44;4996092;28;45289;-85
2021/08/18 07:14:29;;;;;;;;;7.00;6.00;;;;;19.03;64.18;101862.97;4996830;28;45479;-85
2021/08/18 07:16:54;;;;;;;;;5.50;5.00;;;;;19.03;64.25;101856.75;4998670;28;45482;-85
2021/08/18 07:19:20;;;;;;;;;5.50;5.50;;;;;19.01;64.42;101854.19;4999899;28;46013;-85
2021/08/18 07:21:45;;;;;;;;;5.50;5.00;;;;;18.98;64.32;101855.22;4982438;28;45270;-85
2021/08/18 07:24:10;;;;;;;;;4.50;4.50;;;;;18.93;64.79;101845.72;4983091;28;46192;-85
2021/08/18 07:26:36;;;;;;;;;5.00;5.00;;;;;19.00;64.61;101844.47;4974590;28;47190;-85
2021/08/18 07:29:01;;;;;;;;;4.75;4.50;;;;;19.03;64.49;101854.97;4996523;28;46437;-85
2021/08/18 07:31:27;;;;;;;;;9.50;5.00;;;;;19.04;64.46;101847.84;4982817;28;45388;-85
2021/08/18 07:33:53;;;;;;;;;5.00;5.00;;;;;18.95;64.35;101850.03;5000576;28;45310;-85
2021/08/18 07:36:18;;;;;;;;;7.75;4.50;;;;;18.93;64.81;101851.03;4999807;28;45850;-85
2021/08/18 07:38:44;;;;;;;;;3.50;3.50;;;;;18.95;64.33;101843.84;5000687;28;45273;-85
2021/08/18 07:41:09;;;;;;;;;4.75;4.75;;;;;18.96;64.53;101845.56;5000888;28;45260;-85
2021/08/18 07:43:34;;;;;;;;;4.00;4.00;;;;;18.98;64.87;101841.03;4983168;28;45893;-85
2021/08/18 07:46:00;;;;;;;;;4.25;3.50;;;;;18.99;64.74;101856.03;4998920;28;45493;-85
2021/08/18 07:48:25;;;;;;;;;6.00;5.00;;;;;18.92;64.49;101843.97;4999725;28;45297;-86
2021/08/18 07:50:51;;;;;;;;;5.00;5.00;;;;;18.91;65.04;101847.59;5000427;28;45249;-84
2021/08/18 07:53:17;;;;;;;;;4.00;4.00;;;;;18.91;64.76;101843.16;4982336;28;47345;-85
2021/08/18 07:55:42;;;;;;;;;3.25;3.25;;;;;18.89;64.84;101840.53;4982935;28;47200;-84
2021/08/18 07:58:07;;;;;;;;;5.00;5.00;;;;;18.88;65.10;101848.63;5000512;28;45327;-85
2021/08/18 08:00:37;;;;;;;;;4.75;4.25;;;;;18.92;65.08;101841.31;5000223;28;45328;-84
2021/08/18 08:03:03;;;;;;;;;4.00;4.00;;;;;18.99;64.83;101837.41;4999648;28;45175;-85
2021/08/18 08:05:28;;;;;;;;;4.00;3.00;;;;;19.07;65.09;101842.34;4999801;28;46170;-85
2021/08/18 08:07:54;;;;;;;;;6.00;4.50;;;;;19.09;64.71;101849.31;5000302;28;45289;-85
2021/08/18 08:10:20;;;;;;;;;4.25;3.75;;;;;19.09;64.36;101851.97;4999028;28;45235;-84
2021/08/18 08:12:46;;;;;;;;;5.25;4.25;;;;;19.05;64.51;101841.56;4999909;28;45463;-85
2021/08/18 08:15:12;;;;;;;;;5.00;3.50;;;;;19.04;64.34;101840.69;5000354;28;46348;-85
2021/08/18 08:17:37;;;;;;;;;4.00;4.00;;;;;18.99;64.64;101842.72;4982080;28;45544;-85
2021/08/18 08:20:04;;;;;;;;;5.00;3.50;;;;;19.03;64.99;101841.66;5000324;28;45290;-84
2021/08/18 08:22:30;;;;;;;;;3.50;3.50;;;;;19.11;64.85;101842.09;4998653;28;46759;-85
2021/08/18 08:24:55;;;;;;;;;3.75;3.50;;;;;19.14;64.65;101845.56;4998409;28;45343;-85
2021/08/18 08:27:21;;;;;;;;;5.00;5.00;;;;;19.22;65.67;101846.91;4998775;28;45352;-86
2021/08/18 08:29:46;;;;;;;;;6.33;5.00;;;;;19.35;64.98;101835.59;4999920;28;45243;-84
2021/08/18 08:32:11;;;;;;;;;6.75;6.00;;;;;19.47;64.72;101836.75;4981635;28;46998;-84
2021/08/18 08:34:37;;;;;;;;;4.75;4.75;;;;;19.54;64.79;101854.13;4999809;28;45274;-83
2021/08/18 08:37:03;;;;;;;;;6.00;5.00;;;;;19.53;64.14;101838.22;4999960;28;45541;-82
2021/08/18 08:39:28;;;;;;;;;3.25;3.25;;;;;19.52;64.47;101842.69;4999669;28;45418;-83
2021/08/18 08:41:54;;;;;;;;;7.50;4.75;;;;;19.50;63.77;101839.25;4998751;28;45539;-82
2021/08/18 08:44:22;;;;;;;;;3.75;3.75;;;;;19.45;64.13;101842.16;4999984;28;46224;-81
2021/08/18 08:46:49;;;;;;;;;3.00;2.50;;;;;19.53;64.27;101859.56;4999256;28;45452;-79
2021/08/18 08:49:16;;;;;;;;;4.75;4.75;;;;;19.55;63.95;101853.22;4999135;28;45527;-80
2021/08/18 08:51:44;;;;;;;;;6.25;5.00;;;;;19.60;64.15;101860.09;4998104;28;46287;-79
2021/08/18 08:54:10;;;;;;;;;4.25;4.00;;;;;19.60;64.33;101860.09;4998993;28;46300;-80
2021/08/18 08:56:35;;;;;;;;;5.75;5.75;;;;;19.66;63.89;101852.59;4999419;28;45218;-79
2021/08/18 08:59:01;;;;;;;;;6.25;4.75;;;;;19.79;64.01;101851.94;4999226;28;45375;-80
2021/08/18 09:01:26;;;;;;;;;8.75;5.25;;;;;19.86;62.97;101855.13;4999342;28;45474;-79
2021/08/18 09:03:52;;;;;;;;;5.50;4.00;;;;;19.75;62.81;101859.28;4998710;28;45483;-79
2021/08/18 09:06:21;;;;;;;;;4.00;3.00;;;;;19.62;63.19;101853.72;4980936;28;45417;-79
2021/08/18 09:08:52;;;;;;;;;3.25;3.25;;;;;19.56;62.97;101852.25;4992370;28;45270;-79
2021/08/18 09:11:19;;;;;;;;;4.00;4.00;;;;;19.52;63.19;101858.69;4998636;28;45399;-80
2021/08/18 09:13:46;;;;;;;;;5.75;4.00;;;;;19.57;63.25;101855.78;4999609;28;46370;-81
2021/08/18 09:16:13;;;;;;;;;5.75;5.25;;;;;19.63;63.31;101860.75;4998734;28;45457;-79
2021/08/18 09:18:41;;;;;;;;;4.25;4.25;;;;;19.64;62.98;101859.84;4999461;28;45231;-80
2021/08/18 09:21:34;;;;;;;;;3.75;3.75;;;;;19.61;62.97;101861.78;4998978;28;45475;-80
2021/08/18 09:24:11;;;;;;;;;4.75;4.75;;;;;19.65;62.92;101858.91;4998859;28;45475;-80
2021/08/18 09:26:41;;;;;;;;;4.25;4.25;;;;;19.64;63.00;101854.50;4991907;28;45485;-80
2021/08/18 09:29:07;;;;;;;;;6.00;5.25;;;;;19.72;63.17;101850.56;4989916;28;45278;-79
2021/08/18 09:31:32;;;;;;;;;4.75;4.75;;;;;19.80;63.08;101856.34;4998921;28;45413;-79
2021/08/18 09:33:57;;;;;;;;;5.25;5.25;;;;;19.84;62.80;101844.56;4999274;28;46722;-79
2021/08/18 09:36:25;;;;;;;;;4.00;4.00;;;;;19.87;62.32;101852.41;4998681;28;45226;-80
2021/08/18 09:39:10;;;;;;;;;3.75;3.00;;;;;19.89;62.54;101849.63;4999415;28;45261;-80
2021/08/18 09:41:36;;;;;;;;;5.50;5.00;;;;;19.82;62.53;101837.56;4981461;28;46250;-80
2021/08/18 09:44:07;;;;;;;;;4.25;4.25;;;;;19.84;62.31;101839.22;4999230;28;45462;-80
2021/08/18 09:46:36;;;;;;;;;7.25;3.75;;;;;19.86;62.45;101828.44;5001143;28;45585;-79
2021/08/18 09:49:09;;;;;;;;;5.50;4.00;;;;;19.98;62.20;101832.25;5002265;28;45455;-80
2021/08/18 09:51:34;;;;;;;;;5.25;5.25;;;;;20.00;61.92;101833.88;5002603;28;45218;-80
2021/08/18 09:54:14;;;;;;;;;4.00;4.00;;;;;20.07;61.81;101834.41;5002308;28;45424;-80
2021/08/18 09:56:41;;;;;;;;;5.75;4.00;;;;;20.02;61.26;101834.69;5001708;28;45353;-80
2021/08/18 09:59:07;;;;;;;;;4.00;4.00;;;;;19.94;61.29;101830.69;4984193;28;45264;-79
2021/08/18 10:01:34;;;;;;;;;5.00;4.25;;;;;19.93;61.63;101835.16;5002156;28;45311;-80
2021/08/18 10:03:59;;;;;;;;;6.00;4.00;;;;;19.96;61.82;101835.00;5001814;28;45295;-80
2021/08/18 10:06:26;;;;;;;;;4.25;4.25;;;;;19.97;61.58;101826.06;5001425;28;45260;-80
2021/08/18 10:08:54;;;;;;;;;5.25;4.00;;;;;20.00;61.42;101817.03;5002139;28;45424;-81
2021/08/18 10:11:22;;;;;;;;;4.00;3.00;;;;;20.07;61.29;101823.75;5000803;28;45516;-79
2021/08/18 10:13:49;;;;;;;;;7.00;5.00;;;;;20.12;61.76;101819.00;5001786;28;46235;-80
2021/08/18 10:16:14;;;;;;;;;3.00;3.00;;;;;20.26;61.50;101821.84;5001071;28;45743;-80
2021/08/18 10:18:45;;;;;;;;;4.50;4.25;;;;;20.33;61.21;101832.09;5001315;28;45230;-80
2021/08/18 10:21:16;;;;;;;;;3.00;3.00;;;;;20.31;62.12;101839.34;5001658;28;45487;-80
2021/08/18 10:23:46;;;;;;;;;4.25;4.25;;;;;20.22;62.33;101840.69;5001393;28;46394;-80
2021/08/18 10:26:33;;;;;;;;;1.25;1.00;;;;;20.08;63.08;101843.25;5000249;28;45459;-80
2021/08/18 10:29:09;;;;;;;;;4.25;4.25;;;;;19.89;63.95;101844.28;5002009;28;45416;-80
2021/08/18 10:31:40;;;;;;;;;3.00;3.00;;;;;19.86;64.63;101844.47;5001060;28;45494;-80
2021/08/18 10:34:06;;;;;;;;;3.50;3.00;;;;;19.85;64.01;101840.09;5000945;28;45507;-80
2021/08/18 10:36:40;;;;;;;;;2.00;2.00;;;;;20.00;65.39;101836.53;5001484;28;45607;-81
2021/08/18 10:39:18;;;;;;;;;5.00;4.00;;;;;20.14;64.88;101832.28;5001838;28;45582;-81
2021/08/18 10:42:13;;;;;;;;;4.00;4.00;;;;;20.15;63.76;101820.66;5000801;28;45566;-80
2021/08/18 10:44:39;;;;;;;;;7.75;4.00;;;;;20.24;63.80;101817.47;5000937;28;45419;-80
2021/08/18 10:47:18;;;;;;;;;1.00;1.00;;;;;20.30;62.83;101815.38;5001406;28;45368;-80
2021/08/18 10:49:54;;;;;;;;;2.25;2.25;;;;;20.23;62.74;101812.22;5001248;28;45411;-80
2021/08/18 10:52:28;;;;;;;;;1.50;1.50;;;;;20.25;62.50;101810.31;5001216;28;45442;-79
2021/08/18 10:55:06;;;;;;;;;3.00;2.25;;;;;20.29;62.55;101806.53;5000189;28;45459;-80
2021/08/18 10:57:38;;;;;;;;;3.00;3.00;;;;;20.33;62.19;101800.06;5000188;28;45369;-80
2021/08/18 11:00:09;;;;;;;;;2.00;2.00;;;;;20.53;62.39;101811.38;4998322;28;45458;-80
2021/08/18 11:02:49;;;;;;;;;2.75;2.00;;;;;20.58;61.66;101803.09;5000906;28;45475;-80
2021/08/18 11:05:16;;;;;;;;;2.00;2.00;;;;;20.69;61.63;101808.66;5000880;28;46365;-80
2021/08/18 11:08:18;;;;;;;;;3.25;2.00;;;;;20.77;61.77;101802.84;5001327;28;45446;-80
2021/08/18 11:10:50;;;;;;;;;3.25;2.00;;;;;20.79;59.88;101802.78;4990058;28;45468;-80
2021/08/18 11:13:16;;;;;;;;;2.75;1.50;;;;;20.72;59.61;101801.44;5000553;28;45494;-80
2021/08/18 11:15:41;;;;;;;;;1.50;1.50;;;;;20.68;59.89;101798.06;5000544;28;45427;-80
2021/08/18 11:18:08;;;;;;;;;2.50;2.00;;;;;20.72;59.49;101790.75;5000585;28;45440;-80
2021/08/18 11:20:34;;;;;;;;;4.00;4.00;;;;;20.73;60.27;101782.63;5001253;28;45426;-80
2021/08/18 11:23:01;;;;;;;;;6.00;4.25;;;;;20.76;58.59;101773.56;5000872;28;45414;-80